sensor_id;sensor_type;location;lat;lon;timestamp;P1;durP1;ratioP1;P2;durP2;ratioP2
34960;SDS011;30789;52.030;7.110;2023-01-19T00:01:55;8.25;;;5.15;;
34960;SDS011;30789;52.030;7.110;2023-01-19T00:04:21;9.70;;;6.15;;
34960;SDS011;30789;52.030;7.110;2023-01-19T00:06:47;8.43;;;5.97;;
34960;SDS011;30789;52.030;7.110;2023-01-19T00:09:14;10.43;;;6.75;;
34960;SDS011;30789;52.030;7.110;2023-01-19T00:11:40;10.80;;;6.93;;
34960;SDS011;30789;52.030;7.110;2023-01-19T00:14:06;15.30;;;6.90;;
34960;SDS011;30789;52.030;7.110;2023-01-19T00:16:34;14.40;;;7.35;;
34960;SDS011;30789;52.030;7.110;2023-01-19T00:19:00;11.40;;;6.93;;
34960;SDS011;30789;52.030;7.110;2023-01-19T00:21:26;10.23;;;6.43;;
34960;SDS011;30789;52.030;7.110;2023-01-19T00:23:52;8.90;;;6.43;;
34960;SDS011;30789;52.030;7.110;2023-01-19T00:26:19;10.82;;;6.90;;
34960;SDS011;30789;52.030;7.110;2023-01-19T00:28:47;14.52;;;8.25;;
34960;SDS011;30789;52.030;7.110;2023-01-19T00:31:14;10.90;;;6.75;;
34960;SDS011;30789;52.030;7.110;2023-01-19T00:33:41;9.57;;;7.00;;
34960;SDS011;30789;52.030;7.110;2023-01-19T00:36:08;12.63;;;7.30;;
34960;SDS011;30789;52.030;7.110;2023-01-19T00:38:34;13.55;;;7.53;;
34960;SDS011;30789;52.030;7.110;2023-01-19T00:41:01;12.98;;;6.20;;
34960;SDS011;30789;52.030;7.110;2023-01-19T00:43:27;12.65;;;7.82;;
34960;SDS011;30789;52.030;7.110;2023-01-19T00:45:52;11.00;;;7.75;;
34960;SDS011;30789;52.030;7.110;2023-01-19T00:48:18;11.77;;;7.93;;
34960;SDS011;30789;52.030;7.110;2023-01-19T00:50:46;9.68;;;6.70;;
34960;SDS011;30789;52.030;7.110;2023-01-19T00:53:13;11.25;;;7.05;;
34960;SDS011;30789;52.030;7.110;2023-01-19T00:55:39;14.07;;;8.07;;
34960;SDS011;30789;52.030;7.110;2023-01-19T00:58:05;10.98;;;7.10;;
34960;SDS011;30789;52.030;7.110;2023-01-19T01:00:32;12.07;;;7.57;;
34960;SDS011;30789;52.030;7.110;2023-01-19T01:02:58;11.57;;;7.72;;
34960;SDS011;30789;52.030;7.110;2023-01-19T01:05:25;12.52;;;8.27;;
34960;SDS011;30789;52.030;7.110;2023-01-19T01:07:52;12.30;;;8.00;;
34960;SDS011;30789;52.030;7.110;2023-01-19T01:10:19;15.48;;;8.65;;
34960;SDS011;30789;52.030;7.110;2023-01-19T01:12:46;14.27;;;8.65;;
34960;SDS011;30789;52.030;7.110;2023-01-19T01:15:13;12.20;;;8.38;;
34960;SDS011;30789;52.030;7.110;2023-01-19T01:17:39;12.70;;;8.43;;
34960;SDS011;30789;52.030;7.110;2023-01-19T01:20:11;19.17;;;8.63;;
34960;SDS011;30789;52.030;7.110;2023-01-19T01:22:41;12.30;;;8.70;;
34960;SDS011;30789;52.030;7.110;2023-01-19T01:25:10;12.93;;;8.25;;
34960;SDS011;30789;52.030;7.110;2023-01-19T01:27:37;14.40;;;8.35;;
34960;SDS011;30789;52.030;7.110;2023-01-19T01:30:03;12.68;;;8.63;;
34960;SDS011;30789;52.030;7.110;2023-01-19T01:32:30;14.27;;;8.35;;
34960;SDS011;30789;52.030;7.110;2023-01-19T01:34:56;18.05;;;9.27;;
34960;SDS011;30789;52.030;7.110;2023-01-19T01:37:22;17.10;;;10.80;;
34960;SDS011;30789;52.030;7.110;2023-01-19T01:39:49;15.57;;;8.82;;
34960;SDS011;30789;52.030;7.110;2023-01-19T01:42:17;15.57;;;9.73;;
34960;SDS011;30789;52.030;7.110;2023-01-19T01:44:44;17.02;;;8.50;;
34960;SDS011;30789;52.030;7.110;2023-01-19T01:47:15;14.07;;;9.35;;
34960;SDS011;30789;52.030;7.110;2023-01-19T01:49:42;12.70;;;8.80;;
34960;SDS011;30789;52.030;7.110;2023-01-19T01:52:08;14.35;;;9.00;;
34960;SDS011;30789;52.030;7.110;2023-01-19T01:54:35;14.60;;;8.57;;
34960;SDS011;30789;52.030;7.110;2023-01-19T01:57:02;13.57;;;9.05;;
34960;SDS011;30789;52.030;7.110;2023-01-19T01:59:31;15.48;;;8.98;;
34960;SDS011;30789;52.030;7.110;2023-01-19T02:01:59;14.35;;;9.30;;
34960;SDS011;30789;52.030;7.110;2023-01-19T02:04:45;16.77;;;8.45;;
34960;SDS011;30789;52.030;7.110;2023-01-19T02:07:13;10.18;;;7.18;;
34960;SDS011;30789;52.030;7.110;2023-01-19T02:09:58;13.05;;;8.75;;
34960;SDS011;30789;52.030;7.110;2023-01-19T02:12:42;15.68;;;8.77;;
34960;SDS011;30789;52.030;7.110;2023-01-19T02:15:27;12.88;;;7.85;;
34960;SDS011;30789;52.030;7.110;2023-01-19T02:17:53;13.25;;;7.75;;
34960;SDS011;30789;52.030;7.110;2023-01-19T02:20:22;15.35;;;8.43;;
34960;SDS011;30789;52.030;7.110;2023-01-19T02:22:50;11.43;;;7.43;;
34960;SDS011;30789;52.030;7.110;2023-01-19T02:25:18;14.25;;;8.40;;
34960;SDS011;30789;52.030;7.110;2023-01-19T02:27:45;16.88;;;8.70;;
34960;SDS011;30789;52.030;7.110;2023-01-19T02:30:12;13.02;;;7.88;;
34960;SDS011;30789;52.030;7.110;2023-01-19T02:32:40;15.43;;;8.77;;
34960;SDS011;30789;52.030;7.110;2023-01-19T02:35:06;12.15;;;7.95;;
34960;SDS011;30789;52.030;7.110;2023-01-19T02:37:33;14.25;;;8.15;;
34960;SDS011;30789;52.030;7.110;2023-01-19T02:40:02;12.73;;;7.78;;
34960;SDS011;30789;52.030;7.110;2023-01-19T02:42:31;15.63;;;7.60;;
34960;SDS011;30789;52.030;7.110;2023-01-19T02:44:58;13.80;;;8.05;;
34960;SDS011;30789;52.030;7.110;2023-01-19T02:47:35;13.88;;;8.20;;
34960;SDS011;30789;52.030;7.110;2023-01-19T02:50:02;15.45;;;8.48;;
34960;SDS011;30789;52.030;7.110;2023-01-19T02:52:29;15.02;;;8.75;;
34960;SDS011;30789;52.030;7.110;2023-01-19T02:55:00;13.93;;;8.43;;
34960;SDS011;30789;52.030;7.110;2023-01-19T02:57:41;15.50;;;8.95;;
34960;SDS011;30789;52.030;7.110;2023-01-19T03:00:13;13.05;;;7.70;;
34960;SDS011;30789;52.030;7.110;2023-01-19T03:02:45;14.23;;;9.35;;
34960;SDS011;30789;52.030;7.110;2023-01-19T03:07:56;11.98;;;8.13;;
34960;SDS011;30789;52.030;7.110;2023-01-19T03:10:25;13.25;;;8.05;;
34960;SDS011;30789;52.030;7.110;2023-01-19T03:12:56;14.70;;;8.27;;
34960;SDS011;30789;52.030;7.110;2023-01-19T03:15:25;13.82;;;8.00;;
34960;SDS011;30789;52.030;7.110;2023-01-19T03:17:54;15.75;;;8.38;;
34960;SDS011;30789;52.030;7.110;2023-01-19T03:20:22;17.65;;;9.27;;
34960;SDS011;30789;52.030;7.110;2023-01-19T03:22:53;15.00;;;8.38;;
34960;SDS011;30789;52.030;7.110;2023-01-19T03:25:21;15.05;;;9.00;;
34960;SDS011;30789;52.030;7.110;2023-01-19T03:27:48;22.08;;;9.52;;
34960;SDS011;30789;52.030;7.110;2023-01-19T03:30:23;13.43;;;7.22;;
34960;SDS011;30789;52.030;7.110;2023-01-19T03:32:52;16.35;;;9.20;;
34960;SDS011;30789;52.030;7.110;2023-01-19T03:35:20;13.80;;;8.75;;
34960;SDS011;30789;52.030;7.110;2023-01-19T03:37:47;16.13;;;8.70;;
34960;SDS011;30789;52.030;7.110;2023-01-19T03:40:15;14.98;;;8.68;;
34960;SDS011;30789;52.030;7.110;2023-01-19T03:42:42;10.93;;;7.53;;
34960;SDS011;30789;52.030;7.110;2023-01-19T03:45:09;14.77;;;8.20;;
34960;SDS011;30789;52.030;7.110;2023-01-19T03:47:38;12.73;;;7.88;;
34960;SDS011;30789;52.030;7.110;2023-01-19T03:50:05;13.27;;;7.93;;
34960;SDS011;30789;52.030;7.110;2023-01-19T03:52:32;14.13;;;8.07;;
34960;SDS011;30789;52.030;7.110;2023-01-19T03:54:58;14.43;;;8.60;;
34960;SDS011;30789;52.030;7.110;2023-01-19T03:57:25;11.88;;;7.93;;
34960;SDS011;30789;52.030;7.110;2023-01-19T03:59:51;14.45;;;8.60;;
34960;SDS011;30789;52.030;7.110;2023-01-19T04:02:18;12.20;;;7.95;;
34960;SDS011;30789;52.030;7.110;2023-01-19T04:04:46;13.60;;;7.63;;
34960;SDS011;30789;52.030;7.110;2023-01-19T04:07:12;14.02;;;7.85;;
34960;SDS011;30789;52.030;7.110;2023-01-19T04:09:38;14.88;;;8.15;;
34960;SDS011;30789;52.030;7.110;2023-01-19T04:12:05;14.38;;;8.45;;
34960;SDS011;30789;52.030;7.110;2023-01-19T04:14:31;15.73;;;8.63;;
34960;SDS011;30789;52.030;7.110;2023-01-19T04:16:57;13.65;;;8.57;;
34960;SDS011;30789;52.030;7.110;2023-01-19T04:19:23;12.88;;;8.13;;
34960;SDS011;30789;52.030;7.110;2023-01-19T04:21:51;15.80;;;8.40;;
34960;SDS011;30789;52.030;7.110;2023-01-19T04:24:19;11.27;;;7.50;;
34960;SDS011;30789;52.030;7.110;2023-01-19T04:26:46;10.82;;;6.32;;
34960;SDS011;30789;52.030;7.110;2023-01-19T04:29:12;10.15;;;6.22;;
34960;SDS011;30789;52.030;7.110;2023-01-19T04:31:39;10.50;;;6.95;;
34960;SDS011;30789;52.030;7.110;2023-01-19T04:34:05;12.07;;;6.45;;
34960;SDS011;30789;52.030;7.110;2023-01-19T04:36:31;7.50;;;5.32;;
34960;SDS011;30789;52.030;7.110;2023-01-19T04:38:59;8.45;;;5.82;;
34960;SDS011;30789;52.030;7.110;2023-01-19T04:41:25;8.93;;;5.00;;
34960;SDS011;30789;52.030;7.110;2023-01-19T04:43:51;7.40;;;5.00;;
34960;SDS011;30789;52.030;7.110;2023-01-19T04:46:17;7.25;;;5.28;;
34960;SDS011;30789;52.030;7.110;2023-01-19T04:48:44;8.57;;;5.55;;
34960;SDS011;30789;52.030;7.110;2023-01-19T04:51:10;7.03;;;5.45;;
34960;SDS011;30789;52.030;7.110;2023-01-19T04:53:36;6.75;;;5.00;;
34960;SDS011;30789;52.030;7.110;2023-01-19T04:56:04;8.70;;;5.90;;
34960;SDS011;30789;52.030;7.110;2023-01-19T04:58:30;8.63;;;5.47;;
34960;SDS011;30789;52.030;7.110;2023-01-19T05:00:56;8.75;;;5.65;;
34960;SDS011;30789;52.030;7.110;2023-01-19T05:03:23;7.47;;;5.70;;
34960;SDS011;30789;52.030;7.110;2023-01-19T05:05:49;7.25;;;5.28;;
34960;SDS011;30789;52.030;7.110;2023-01-19T05:08:15;9.00;;;6.45;;
34960;SDS011;30789;52.030;7.110;2023-01-19T05:10:41;9.75;;;6.65;;
34960;SDS011;30789;52.030;7.110;2023-01-19T05:13:09;9.00;;;5.88;;
34960;SDS011;30789;52.030;7.110;2023-01-19T05:15:35;8.43;;;6.50;;
34960;SDS011;30789;52.030;7.110;2023-01-19T05:18:02;7.93;;;6.25;;
34960;SDS011;30789;52.030;7.110;2023-01-19T05:20:28;9.77;;;6.85;;
34960;SDS011;30789;52.030;7.110;2023-01-19T05:22:54;8.27;;;5.57;;
34960;SDS011;30789;52.030;7.110;2023-01-19T05:25:20;7.57;;;5.70;;
34960;SDS011;30789;52.030;7.110;2023-01-19T05:27:47;7.75;;;6.07;;
34960;SDS011;30789;52.030;7.110;2023-01-19T05:30:15;8.05;;;5.00;;
34960;SDS011;30789;52.030;7.110;2023-01-19T05:32:41;7.13;;;5.28;;
34960;SDS011;30789;52.030;7.110;2023-01-19T05:35:08;6.20;;;4.65;;
34960;SDS011;30789;52.030;7.110;2023-01-19T05:37:34;6.30;;;4.93;;
34960;SDS011;30789;52.030;7.110;2023-01-19T05:40:00;6.20;;;4.82;;
34960;SDS011;30789;52.030;7.110;2023-01-19T05:42:26;6.00;;;4.95;;
34960;SDS011;30789;52.030;7.110;2023-01-19T05:44:53;5.95;;;4.70;;
34960;SDS011;30789;52.030;7.110;2023-01-19T05:47:20;5.97;;;4.85;;
34960;SDS011;30789;52.030;7.110;2023-01-19T05:49:47;5.15;;;4.65;;
34960;SDS011;30789;52.030;7.110;2023-01-19T05:52:13;5.18;;;4.47;;
34960;SDS011;30789;52.030;7.110;2023-01-19T05:54:39;5.13;;;4.53;;
34960;SDS011;30789;52.030;7.110;2023-01-19T05:57:06;4.50;;;4.07;;
34960;SDS011;30789;52.030;7.110;2023-01-19T05:59:32;6.65;;;4.80;;
34960;SDS011;30789;52.030;7.110;2023-01-19T06:01:59;8.38;;;5.18;;
34960;SDS011;30789;52.030;7.110;2023-01-19T06:04:26;7.68;;;4.93;;
34960;SDS011;30789;52.030;7.110;2023-01-19T06:06:53;5.93;;;4.13;;
34960;SDS011;30789;52.030;7.110;2023-01-19T06:09:19;6.00;;;4.70;;
34960;SDS011;30789;52.030;7.110;2023-01-19T06:11:45;5.22;;;4.70;;
34960;SDS011;30789;52.030;7.110;2023-01-19T06:14:12;4.10;;;3.70;;
34960;SDS011;30789;52.030;7.110;2023-01-19T06:16:38;4.32;;;3.72;;
34960;SDS011;30789;52.030;7.110;2023-01-19T06:19:05;3.47;;;3.17;;
34960;SDS011;30789;52.030;7.110;2023-01-19T06:21:32;4.90;;;3.83;;
34960;SDS011;30789;52.030;7.110;2023-01-19T06:23:59;4.55;;;3.83;;
34960;SDS011;30789;52.030;7.110;2023-01-19T06:26:25;5.55;;;3.60;;
34960;SDS011;30789;52.030;7.110;2023-01-19T06:28:51;4.57;;;3.70;;
34960;SDS011;30789;52.030;7.110;2023-01-19T06:31:18;3.70;;;3.13;;
34960;SDS011;30789;52.030;7.110;2023-01-19T06:33:44;3.63;;;3.28;;
34960;SDS011;30789;52.030;7.110;2023-01-19T06:36:10;4.68;;;3.47;;
34960;SDS011;30789;52.030;7.110;2023-01-19T06:38:38;5.72;;;3.22;;
34960;SDS011;30789;52.030;7.110;2023-01-19T06:41:04;4.57;;;3.22;;
34960;SDS011;30789;52.030;7.110;2023-01-19T06:43:30;4.70;;;3.10;;
34960;SDS011;30789;52.030;7.110;2023-01-19T06:45:57;5.57;;;3.20;;
34960;SDS011;30789;52.030;7.110;2023-01-19T06:48:24;6.30;;;2.95;;
34960;SDS011;30789;52.030;7.110;2023-01-19T06:50:50;5.20;;;2.65;;
34960;SDS011;30789;52.030;7.110;2023-01-19T06:53:17;5.60;;;3.30;;
34960;SDS011;30789;52.030;7.110;2023-01-19T06:55:46;7.20;;;3.72;;
34960;SDS011;30789;52.030;7.110;2023-01-19T06:58:12;4.60;;;3.40;;
34960;SDS011;30789;52.030;7.110;2023-01-19T07:00:39;3.70;;;3.28;;
34960;SDS011;30789;52.030;7.110;2023-01-19T07:03:05;4.05;;;3.17;;
34960;SDS011;30789;52.030;7.110;2023-01-19T07:05:33;4.72;;;3.67;;
34960;SDS011;30789;52.030;7.110;2023-01-19T07:07:59;5.43;;;3.45;;
34960;SDS011;30789;52.030;7.110;2023-01-19T07:10:25;7.35;;;3.85;;
34960;SDS011;30789;52.030;7.110;2023-01-19T07:12:53;6.10;;;3.53;;
34960;SDS011;30789;52.030;7.110;2023-01-19T07:15:21;7.60;;;3.60;;
34960;SDS011;30789;52.030;7.110;2023-01-19T07:17:47;3.95;;;3.38;;
34960;SDS011;30789;52.030;7.110;2023-01-19T07:20:14;7.45;;;4.63;;
34960;SDS011;30789;52.030;7.110;2023-01-19T07:22:41;5.25;;;4.32;;
34960;SDS011;30789;52.030;7.110;2023-01-19T07:25:09;6.50;;;4.25;;
34960;SDS011;30789;52.030;7.110;2023-01-19T07:27:35;5.65;;;4.22;;
34960;SDS011;30789;52.030;7.110;2023-01-19T07:30:04;8.70;;;4.68;;
34960;SDS011;30789;52.030;7.110;2023-01-19T07:32:30;8.77;;;4.30;;
34960;SDS011;30789;52.030;7.110;2023-01-19T07:34:56;5.53;;;4.18;;
34960;SDS011;30789;52.030;7.110;2023-01-19T07:37:22;8.35;;;4.45;;
34960;SDS011;30789;52.030;7.110;2023-01-19T07:39:49;6.75;;;4.68;;
34960;SDS011;30789;52.030;7.110;2023-01-19T07:42:15;6.30;;;4.57;;
34960;SDS011;30789;52.030;7.110;2023-01-19T07:44:41;9.93;;;5.15;;
34960;SDS011;30789;52.030;7.110;2023-01-19T07:47:09;6.40;;;4.82;;
34960;SDS011;30789;52.030;7.110;2023-01-19T07:49:36;9.20;;;4.55;;
34960;SDS011;30789;52.030;7.110;2023-01-19T07:52:03;7.15;;;4.50;;
34960;SDS011;30789;52.030;7.110;2023-01-19T07:54:29;6.80;;;5.03;;
34960;SDS011;30789;52.030;7.110;2023-01-19T07:56:55;14.07;;;5.53;;
34960;SDS011;30789;52.030;7.110;2023-01-19T07:59:22;8.52;;;4.68;;
34960;SDS011;30789;52.030;7.110;2023-01-19T08:01:48;10.75;;;4.63;;
34960;SDS011;30789;52.030;7.110;2023-01-19T08:04:16;12.02;;;5.85;;
34960;SDS011;30789;52.030;7.110;2023-01-19T08:06:43;11.30;;;6.05;;
34960;SDS011;30789;52.030;7.110;2023-01-19T08:09:09;11.57;;;6.03;;
34960;SDS011;30789;52.030;7.110;2023-01-19T08:11:36;7.93;;;5.43;;
34960;SDS011;30789;52.030;7.110;2023-01-19T08:14:03;10.88;;;4.82;;
34960;SDS011;30789;52.030;7.110;2023-01-19T08:16:29;9.80;;;5.05;;
34960;SDS011;30789;52.030;7.110;2023-01-19T08:18:56;7.05;;;4.45;;
34960;SDS011;30789;52.030;7.110;2023-01-19T08:21:23;7.05;;;3.72;;
34960;SDS011;30789;52.030;7.110;2023-01-19T08:23:53;10.13;;;4.55;;
34960;SDS011;30789;52.030;7.110;2023-01-19T08:26:20;5.55;;;4.38;;
34960;SDS011;30789;52.030;7.110;2023-01-19T08:28:48;7.57;;;5.80;;
34960;SDS011;30789;52.030;7.110;2023-01-19T08:33:49;13.07;;;7.72;;
34960;SDS011;30789;52.030;7.110;2023-01-19T08:36:15;6.35;;;4.30;;
34960;SDS011;30789;52.030;7.110;2023-01-19T08:38:44;11.60;;;5.22;;
34960;SDS011;30789;52.030;7.110;2023-01-19T08:41:10;8.60;;;4.45;;
34960;SDS011;30789;52.030;7.110;2023-01-19T08:43:36;6.10;;;4.05;;
34960;SDS011;30789;52.030;7.110;2023-01-19T08:46:03;8.48;;;4.50;;
34960;SDS011;30789;52.030;7.110;2023-01-19T08:48:29;7.15;;;4.43;;
34960;SDS011;30789;52.030;7.110;2023-01-19T08:50:56;7.28;;;4.03;;
34960;SDS011;30789;52.030;7.110;2023-01-19T08:53:23;5.82;;;4.03;;
34960;SDS011;30789;52.030;7.110;2023-01-19T08:55:54;6.38;;;4.28;;
34960;SDS011;30789;52.030;7.110;2023-01-19T08:58:21;14.23;;;4.85;;
34960;SDS011;30789;52.030;7.110;2023-01-19T09:00:47;6.70;;;4.32;;
34960;SDS011;30789;52.030;7.110;2023-01-19T09:03:16;6.90;;;4.53;;
34960;SDS011;30789;52.030;7.110;2023-01-19T09:05:43;6.85;;;3.75;;
34960;SDS011;30789;52.030;7.110;2023-01-19T09:08:10;5.68;;;3.47;;
34960;SDS011;30789;52.030;7.110;2023-01-19T09:10:37;5.15;;;2.65;;
34960;SDS011;30789;52.030;7.110;2023-01-19T09:13:05;9.75;;;3.10;;
34960;SDS011;30789;52.030;7.110;2023-01-19T09:15:32;12.00;;;3.58;;
34960;SDS011;30789;52.030;7.110;2023-01-19T09:18:01;5.88;;;3.42;;
34960;SDS011;30789;52.030;7.110;2023-01-19T09:20:28;8.35;;;3.00;;
34960;SDS011;30789;52.030;7.110;2023-01-19T09:22:55;5.82;;;2.95;;
34960;SDS011;30789;52.030;7.110;2023-01-19T09:25:21;4.38;;;2.85;;
34960;SDS011;30789;52.030;7.110;2023-01-19T09:27:48;5.60;;;2.92;;
34960;SDS011;30789;52.030;7.110;2023-01-19T09:30:16;3.70;;;2.88;;
34960;SDS011;30789;52.030;7.110;2023-01-19T09:32:43;8.35;;;3.08;;
34960;SDS011;30789;52.030;7.110;2023-01-19T09:35:09;7.28;;;3.38;;
34960;SDS011;30789;52.030;7.110;2023-01-19T09:37:36;5.25;;;2.90;;
34960;SDS011;30789;52.030;7.110;2023-01-19T09:40:02;6.03;;;3.30;;
34960;SDS011;30789;52.030;7.110;2023-01-19T09:42:30;5.60;;;2.72;;
34960;SDS011;30789;52.030;7.110;2023-01-19T09:44:58;5.45;;;3.20;;
34960;SDS011;30789;52.030;7.110;2023-01-19T09:47:27;5.80;;;2.80;;
34960;SDS011;30789;52.030;7.110;2023-01-19T09:49:55;12.98;;;2.90;;
34960;SDS011;30789;52.030;7.110;2023-01-19T09:52:23;5.88;;;2.85;;
34960;SDS011;30789;52.030;7.110;2023-01-19T09:54:51;6.57;;;3.20;;
34960;SDS011;30789;52.030;7.110;2023-01-19T09:57:19;7.38;;;3.25;;
34960;SDS011;30789;52.030;7.110;2023-01-19T09:59:45;5.95;;;2.90;;
34960;SDS011;30789;52.030;7.110;2023-01-19T10:02:18;4.28;;;3.13;;
34960;SDS011;30789;52.030;7.110;2023-01-19T10:04:51;8.98;;;3.58;;
34960;SDS011;30789;52.030;7.110;2023-01-19T10:07:24;5.07;;;3.22;;
34960;SDS011;30789;52.030;7.110;2023-01-19T10:09:58;5.13;;;3.28;;
34960;SDS011;30789;52.030;7.110;2023-01-19T10:12:34;8.40;;;4.10;;
34960;SDS011;30789;52.030;7.110;2023-01-19T10:15:04;7.47;;;3.85;;
34960;SDS011;30789;52.030;7.110;2023-01-19T10:17:37;7.45;;;4.60;;
34960;SDS011;30789;52.030;7.110;2023-01-19T10:20:12;8.20;;;4.40;;
34960;SDS011;30789;52.030;7.110;2023-01-19T10:22:41;14.48;;;5.10;;
34960;SDS011;30789;52.030;7.110;2023-01-19T10:25:12;6.13;;;4.47;;
34960;SDS011;30789;52.030;7.110;2023-01-19T10:27:39;10.18;;;5.43;;
34960;SDS011;30789;52.030;7.110;2023-01-19T10:30:06;9.35;;;5.68;;
34960;SDS011;30789;52.030;7.110;2023-01-19T10:32:34;13.88;;;5.68;;
34960;SDS011;30789;52.030;7.110;2023-01-19T10:35:00;12.68;;;5.68;;
34960;SDS011;30789;52.030;7.110;2023-01-19T10:37:32;11.32;;;5.38;;
34960;SDS011;30789;52.030;7.110;2023-01-19T10:40:00;13.20;;;7.05;;
34960;SDS011;30789;52.030;7.110;2023-01-19T10:42:28;9.32;;;6.53;;
34960;SDS011;30789;52.030;7.110;2023-01-19T10:44:54;12.82;;;7.05;;
34960;SDS011;30789;52.030;7.110;2023-01-19T10:47:21;10.95;;;6.88;;
34960;SDS011;30789;52.030;7.110;2023-01-19T10:49:48;12.18;;;6.88;;
34960;SDS011;30789;52.030;7.110;2023-01-19T10:52:18;13.85;;;8.30;;
34960;SDS011;30789;52.030;7.110;2023-01-19T10:54:46;61.05;;;27.58;;
34960;SDS011;30789;52.030;7.110;2023-01-19T10:57:18;18.70;;;10.32;;
34960;SDS011;30789;52.030;7.110;2023-01-19T10:59:46;17.48;;;9.10;;
34960;SDS011;30789;52.030;7.110;2023-01-19T11:02:15;13.95;;;8.50;;
34960;SDS011;30789;52.030;7.110;2023-01-19T11:04:42;20.17;;;8.48;;
34960;SDS011;30789;52.030;7.110;2023-01-19T11:07:13;15.73;;;9.00;;
34960;SDS011;30789;52.030;7.110;2023-01-19T11:09:39;15.88;;;8.65;;
34960;SDS011;30789;52.030;7.110;2023-01-19T11:12:13;11.65;;;8.18;;
34960;SDS011;30789;52.030;7.110;2023-01-19T11:14:40;13.85;;;8.32;;
34960;SDS011;30789;52.030;7.110;2023-01-19T11:17:09;16.17;;;8.75;;
34960;SDS011;30789;52.030;7.110;2023-01-19T11:19:41;18.42;;;8.65;;
34960;SDS011;30789;52.030;7.110;2023-01-19T11:22:14;13.77;;;8.70;;
34960;SDS011;30789;52.030;7.110;2023-01-19T11:24:45;15.57;;;7.88;;
34960;SDS011;30789;52.030;7.110;2023-01-19T11:27:14;18.50;;;8.65;;
34960;SDS011;30789;52.030;7.110;2023-01-19T11:29:44;15.15;;;8.32;;
34960;SDS011;30789;52.030;7.110;2023-01-19T11:32:16;21.20;;;11.25;;
34960;SDS011;30789;52.030;7.110;2023-01-19T11:34:44;58.67;;;22.05;;
34960;SDS011;30789;52.030;7.110;2023-01-19T11:37:24;22.23;;;9.60;;
34960;SDS011;30789;52.030;7.110;2023-01-19T11:39:51;18.48;;;9.02;;
34960;SDS011;30789;52.030;7.110;2023-01-19T11:42:19;15.90;;;5.90;;
34960;SDS011;30789;52.030;7.110;2023-01-19T11:44:47;12.13;;;5.05;;
34960;SDS011;30789;52.030;7.110;2023-01-19T11:47:17;10.98;;;5.18;;
34960;SDS011;30789;52.030;7.110;2023-01-19T11:49:50;13.70;;;4.80;;
34960;SDS011;30789;52.030;7.110;2023-01-19T11:52:19;9.10;;;5.13;;
34960;SDS011;30789;52.030;7.110;2023-01-19T11:54:48;10.00;;;4.85;;
34960;SDS011;30789;52.030;7.110;2023-01-19T11:57:21;11.43;;;5.00;;
34960;SDS011;30789;52.030;7.110;2023-01-19T11:59:47;14.43;;;5.28;;
34960;SDS011;30789;52.030;7.110;2023-01-19T12:02:16;11.25;;;4.53;;
34960;SDS011;30789;52.030;7.110;2023-01-19T12:04:45;10.63;;;5.75;;
34960;SDS011;30789;52.030;7.110;2023-01-19T12:07:13;14.65;;;5.20;;
34960;SDS011;30789;52.030;7.110;2023-01-19T12:09:43;9.23;;;5.78;;
34960;SDS011;30789;52.030;7.110;2023-01-19T12:12:12;14.85;;;6.63;;
34960;SDS011;30789;52.030;7.110;2023-01-19T12:14:46;11.17;;;7.23;;
34960;SDS011;30789;52.030;7.110;2023-01-19T12:17:15;10.93;;;6.90;;
34960;SDS011;30789;52.030;7.110;2023-01-19T12:19:49;10.77;;;7.30;;
34960;SDS011;30789;52.030;7.110;2023-01-19T12:22:16;11.40;;;7.13;;
34960;SDS011;30789;52.030;7.110;2023-01-19T12:24:45;10.73;;;5.95;;
34960;SDS011;30789;52.030;7.110;2023-01-19T12:27:12;11.43;;;6.47;;
34960;SDS011;30789;52.030;7.110;2023-01-19T12:29:40;9.45;;;6.38;;
34960;SDS011;30789;52.030;7.110;2023-01-19T12:32:18;9.65;;;6.22;;
34960;SDS011;30789;52.030;7.110;2023-01-19T12:34:45;9.85;;;6.30;;
34960;SDS011;30789;52.030;7.110;2023-01-19T12:37:29;12.88;;;6.70;;
34960;SDS011;30789;52.030;7.110;2023-01-19T12:39:57;14.57;;;7.15;;
34960;SDS011;30789;52.030;7.110;2023-01-19T12:42:24;11.48;;;6.75;;
34960;SDS011;30789;52.030;7.110;2023-01-19T12:44:51;14.00;;;7.22;;
34960;SDS011;30789;52.030;7.110;2023-01-19T12:47:21;15.48;;;7.07;;
34960;SDS011;30789;52.030;7.110;2023-01-19T12:49:48;10.50;;;6.85;;
34960;SDS011;30789;52.030;7.110;2023-01-19T12:52:17;16.45;;;6.47;;
34960;SDS011;30789;52.030;7.110;2023-01-19T12:54:52;12.40;;;6.50;;
34960;SDS011;30789;52.030;7.110;2023-01-19T12:57:21;10.52;;;5.95;;
34960;SDS011;30789;52.030;7.110;2023-01-19T12:59:54;10.88;;;5.72;;
34960;SDS011;30789;52.030;7.110;2023-01-19T13:05:20;8.20;;;5.22;;
34960;SDS011;30789;52.030;7.110;2023-01-19T13:13:17;7.45;;;5.15;;
34960;SDS011;30789;52.030;7.110;2023-01-19T13:15:44;9.85;;;4.82;;
34960;SDS011;30789;52.030;7.110;2023-01-19T13:18:14;9.48;;;5.32;;
34960;SDS011;30789;52.030;7.110;2023-01-19T13:20:45;10.40;;;5.47;;
34960;SDS011;30789;52.030;7.110;2023-01-19T13:23:19;6.45;;;4.68;;
34960;SDS011;30789;52.030;7.110;2023-01-19T13:25:47;11.07;;;5.97;;
34960;SDS011;30789;52.030;7.110;2023-01-19T13:28:14;12.90;;;5.60;;
34960;SDS011;30789;52.030;7.110;2023-01-19T13:30:46;11.25;;;5.05;;
34960;SDS011;30789;52.030;7.110;2023-01-19T13:33:16;10.18;;;5.70;;
34960;SDS011;30789;52.030;7.110;2023-01-19T13:35:49;10.40;;;5.13;;
34960;SDS011;30789;52.030;7.110;2023-01-19T13:38:16;12.52;;;7.57;;
34960;SDS011;30789;52.030;7.110;2023-01-19T13:40:42;9.95;;;6.13;;
34960;SDS011;30789;52.030;7.110;2023-01-19T13:43:12;15.50;;;8.25;;
34960;SDS011;30789;52.030;7.110;2023-01-19T13:45:39;12.98;;;7.05;;
34960;SDS011;30789;52.030;7.110;2023-01-19T13:48:07;9.75;;;6.35;;
34960;SDS011;30789;52.030;7.110;2023-01-19T13:50:34;18.20;;;11.23;;
34960;SDS011;30789;52.030;7.110;2023-01-19T13:53:14;15.15;;;7.55;;
34960;SDS011;30789;52.030;7.110;2023-01-19T13:55:41;15.68;;;10.18;;
34960;SDS011;30789;52.030;7.110;2023-01-19T13:58:17;12.27;;;7.78;;
34960;SDS011;30789;52.030;7.110;2023-01-19T14:00:44;17.50;;;9.88;;
34960;SDS011;30789;52.030;7.110;2023-01-19T14:03:14;18.83;;;8.93;;
34960;SDS011;30789;52.030;7.110;2023-01-19T14:05:42;17.98;;;8.23;;
34960;SDS011;30789;52.030;7.110;2023-01-19T14:08:11;16.05;;;9.57;;
34960;SDS011;30789;52.030;7.110;2023-01-19T14:10:40;15.10;;;8.13;;
34960;SDS011;30789;52.030;7.110;2023-01-19T14:13:12;14.15;;;8.52;;
34960;SDS011;30789;52.030;7.110;2023-01-19T14:15:38;17.85;;;9.15;;
34960;SDS011;30789;52.030;7.110;2023-01-19T14:18:09;11.48;;;6.57;;
34960;SDS011;30789;52.030;7.110;2023-01-19T14:20:35;17.48;;;8.07;;
34960;SDS011;30789;52.030;7.110;2023-01-19T14:23:02;15.32;;;8.30;;
34960;SDS011;30789;52.030;7.110;2023-01-19T14:25:29;15.85;;;8.60;;
34960;SDS011;30789;52.030;7.110;2023-01-19T14:30:52;17.70;;;7.93;;
34960;SDS011;30789;52.030;7.110;2023-01-19T14:36:07;18.73;;;9.55;;
34960;SDS011;30789;52.030;7.110;2023-01-19T14:38:33;16.38;;;7.45;;
34960;SDS011;30789;52.030;7.110;2023-01-19T14:40:59;20.80;;;9.05;;
34960;SDS011;30789;52.030;7.110;2023-01-19T14:43:25;19.00;;;8.52;;
34960;SDS011;30789;52.030;7.110;2023-01-19T14:45:55;16.25;;;9.75;;
34960;SDS011;30789;52.030;7.110;2023-01-19T14:48:21;19.98;;;9.50;;
34960;SDS011;30789;52.030;7.110;2023-01-19T14:50:48;20.38;;;9.80;;
34960;SDS011;30789;52.030;7.110;2023-01-19T14:53:16;23.85;;;10.20;;
34960;SDS011;30789;52.030;7.110;2023-01-19T14:55:43;20.95;;;12.07;;
34960;SDS011;30789;52.030;7.110;2023-01-19T14:58:10;18.15;;;9.57;;
34960;SDS011;30789;52.030;7.110;2023-01-19T15:00:37;18.77;;;10.57;;
34960;SDS011;30789;52.030;7.110;2023-01-19T15:03:05;20.00;;;9.75;;
34960;SDS011;30789;52.030;7.110;2023-01-19T15:05:33;15.48;;;10.65;;